createdAt,value
2018-11-01T00:00:19.570Z,101467.00
2018-11-01T00:02:22.581Z,101477.00
2018-11-01T00:04:25.585Z,101466.00
2018-11-01T00:06:28.910Z,101468.00
2018-11-01T00:08:33.626Z,101468.00
2018-11-01T00:10:36.661Z,101464.00
2018-11-01T00:12:40.806Z,101462.00
2018-11-01T00:14:43.779Z,101466.00
2018-11-01T00:16:46.757Z,101460.00
2018-11-01T00:18:49.843Z,101464.00
2018-11-01T00:20:52.781Z,101459.00
2018-11-01T00:22:55.765Z,101462.00
2018-11-01T00:24:59.104Z,101447.00
2018-11-01T00:27:04.177Z,101440.00
2018-11-01T00:29:07.189Z,101437.00
2018-11-01T00:31:10.738Z,101447.00
2018-11-01T00:33:13.665Z,101440.00
2018-11-01T00:35:16.632Z,101441.00
2018-11-01T00:37:19.631Z,101442.00
2018-11-01T00:39:22.582Z,101442.00
2018-11-01T00:41:25.556Z,101452.00
2018-11-01T00:43:28.629Z,101449.00
2018-11-01T00:45:33.040Z,101442.00
2018-11-01T00:47:36.311Z,101437.00
2018-11-01T00:49:39.709Z,101439.00
2018-11-01T00:51:42.784Z,101436.00
2018-11-01T00:53:45.747Z,101439.00
2018-11-01T00:55:48.765Z,101436.00
2018-11-01T00:57:51.854Z,101436.00
2018-11-01T00:59:54.829Z,101441.00
2018-11-01T01:01:57.805Z,101442.00
2018-11-01T01:04:00.951Z,101435.00
2018-11-01T01:06:06.040Z,101438.00
2018-11-01T01:08:09.080Z,101448.00
2018-11-01T01:10:15.468Z,101453.00
2018-11-01T01:12:18.458Z,101454.00
2018-11-01T01:14:21.432Z,101447.00
2018-11-01T01:16:24.508Z,101435.00
2018-11-01T01:18:27.490Z,101430.00
2018-11-01T01:20:30.802Z,101422.00
2018-11-01T01:22:35.403Z,101423.00
2018-11-01T01:24:38.426Z,101419.00
2018-11-01T01:26:41.409Z,101419.00
2018-11-01T01:28:44.344Z,101412.00
2018-11-01T01:30:47.632Z,101425.00
2018-11-01T01:32:51.329Z,101419.00
2018-11-01T01:34:54.289Z,101419.00
2018-11-01T01:36:57.301Z,101419.00
2018-11-01T01:39:00.280Z,101427.00
2018-11-01T01:41:04.839Z,101426.00
2018-11-01T01:43:08.274Z,101426.00
2018-11-01T01:45:11.226Z,101422.00
2018-11-01T01:47:14.149Z,101420.00
2018-11-01T01:49:17.162Z,101419.00
2018-11-01T01:51:20.163Z,101414.00
2018-11-01T01:53:23.146Z,101411.00
2018-11-01T01:55:26.092Z,101411.00
2018-11-01T01:57:29.053Z,101405.00
2018-11-01T01:59:33.149Z,101399.00
2018-11-01T02:01:36.129Z,101394.00
2018-11-01T02:03:39.117Z,101393.00
2018-11-01T02:05:42.221Z,101393.00
2018-11-01T02:07:45.218Z,101393.00
2018-11-01T02:09:48.226Z,101393.00
2018-11-01T02:11:51.449Z,101388.00
2018-11-01T02:13:54.635Z,101393.00
2018-11-01T02:15:57.672Z,101388.00
2018-11-01T02:18:00.649Z,101382.00
2018-11-01T02:20:07.122Z,101373.00
2018-11-01T02:22:10.121Z,101365.00
2018-11-01T02:24:13.081Z,101358.00
2018-11-01T02:26:16.034Z,101355.00
2018-11-01T02:28:19.082Z,101357.00
2018-11-01T02:30:22.089Z,101357.00
2018-11-01T02:32:25.099Z,101356.00
2018-11-01T02:34:28.123Z,101349.00
2018-11-01T02:36:31.514Z,101347.00
2018-11-01T02:38:36.616Z,101338.00
2018-11-01T02:40:39.542Z,101335.00
2018-11-01T02:42:42.933Z,101335.00
2018-11-01T02:44:45.949Z,101323.00
2018-11-01T02:46:48.958Z,101319.00
2018-11-01T02:48:52.325Z,101314.00
2018-11-01T02:50:55.296Z,101317.00
2018-11-01T02:52:58.257Z,101318.00
2018-11-01T02:55:01.565Z,101311.00
2018-11-01T02:57:05.757Z,101315.00
2018-11-01T02:59:08.756Z,101320.00
2018-11-01T03:01:16.343Z,101331.00
2018-11-01T03:03:19.341Z,101333.00
2018-11-01T03:05:22.563Z,101348.00
2018-11-01T03:07:26.053Z,101350.00
2018-11-01T03:09:29.212Z,101347.00
2018-11-01T03:11:33.841Z,101346.00
2018-11-01T03:13:36.816Z,101338.00
2018-11-01T03:15:39.808Z,101332.00
2018-11-01T03:17:43.213Z,101333.00
2018-11-01T03:19:46.201Z,101325.00
2018-11-01T03:21:49.190Z,101321.00
2018-11-01T03:23:52.436Z,101328.00
2018-11-01T03:25:55.822Z,101325.00
2018-11-01T03:27:59.063Z,101323.00
2018-11-01T03:30:04.143Z,101326.00
2018-11-01T03:32:07.135Z,101323.00
2018-11-01T03:34:10.073Z,101324.00
2018-11-01T03:36:13.091Z,101318.00
2018-11-01T03:38:16.222Z,101316.00
2018-11-01T03:40:19.177Z,101310.00
2018-11-01T03:42:22.222Z,101310.00
2018-11-01T03:44:25.296Z,101311.00
2018-11-01T03:46:29.136Z,101305.00
2018-11-01T03:48:32.561Z,101301.00
2018-11-01T03:50:35.930Z,101292.00
2018-11-01T03:52:38.968Z,101287.00
2018-11-01T03:54:42.035Z,101284.00
2018-11-01T03:56:45.071Z,101283.00
2018-11-01T03:58:48.437Z,101285.00
2018-11-01T04:00:51.475Z,101279.00
2018-11-01T04:02:54.626Z,101277.00
2018-11-01T04:04:57.705Z,101282.00
2018-11-01T04:07:00.814Z,101286.00
2018-11-01T04:09:08.642Z,101285.00
2018-11-01T04:11:11.636Z,101289.00
2018-11-01T04:13:14.606Z,101295.00
2018-11-01T04:15:17.867Z,101295.00
2018-11-01T04:17:20.883Z,101301.00
2018-11-01T04:19:23.870Z,101302.00
2018-11-01T04:21:26.912Z,101298.00
2018-11-01T04:23:30.045Z,101301.00
2018-11-01T04:25:34.555Z,101295.00
2018-11-01T04:27:37.907Z,101286.00
2018-11-01T04:29:41.324Z,101286.00
2018-11-01T04:31:44.348Z,101286.00
2018-11-01T04:33:47.482Z,101282.00
2018-11-01T04:35:50.377Z,101281.00
2018-11-01T04:37:53.366Z,101289.00
2018-11-01T04:39:56.379Z,101283.00
2018-11-01T04:41:59.382Z,101281.00
2018-11-01T04:44:04.446Z,101276.00
2018-11-01T04:46:07.420Z,101275.00
2018-11-01T04:48:10.538Z,101274.00
2018-11-01T04:50:13.526Z,101275.00
2018-11-01T04:52:16.557Z,101276.00
2018-11-01T04:54:19.614Z,101266.00
2018-11-01T04:56:22.643Z,101258.00
2018-11-01T04:58:25.666Z,101254.00
2018-11-01T05:00:29.109Z,101252.00
2018-11-01T05:02:34.106Z,101255.00
2018-11-01T05:04:37.229Z,101260.00
2018-11-01T05:06:40.427Z,101271.00
2018-11-01T05:08:43.785Z,101277.00
2018-11-01T05:10:46.817Z,101279.00
2018-11-01T05:12:49.916Z,101276.00
2018-11-01T05:14:52.955Z,101277.00
2018-11-01T05:16:55.932Z,101283.00
2018-11-01T05:18:58.914Z,101292.00
2018-11-01T05:21:03.782Z,101294.00
2018-11-01T05:23:07.318Z,101297.00
2018-11-01T05:25:10.750Z,101293.00
2018-11-01T05:27:14.064Z,101284.00
2018-11-01T05:29:17.118Z,101276.00
2018-11-01T05:31:20.116Z,101271.00
2018-11-01T05:33:23.182Z,101272.00
2018-11-01T05:35:26.571Z,101272.00
2018-11-01T05:37:29.737Z,101262.00
2018-11-01T05:39:34.967Z,101254.00
2018-11-01T05:41:38.157Z,101246.00
2018-11-01T05:43:41.146Z,101243.00
2018-11-01T05:45:44.154Z,101240.00
2018-11-01T05:47:47.182Z,101231.00
2018-11-01T05:49:50.199Z,101218.00
2018-11-01T05:51:53.194Z,101211.00
2018-11-01T05:53:56.201Z,101209.00
2018-11-01T05:55:59.214Z,101223.00
2018-11-01T05:58:04.606Z,101233.00
2018-11-01T06:00:10.638Z,101228.00
2018-11-01T06:02:21.148Z,101227.00
2018-11-01T06:04:24.094Z,101221.00
2018-11-01T06:06:27.093Z,101211.00
2018-11-01T06:08:34.020Z,101209.00
2018-11-01T06:10:36.996Z,101207.00
2018-11-01T06:12:39.946Z,101214.00
2018-11-01T06:14:42.927Z,101207.00
2018-11-01T06:16:45.934Z,101202.00
2018-11-01T06:18:48.902Z,101206.00
2018-11-01T06:20:51.831Z,101219.00
2018-11-01T06:22:54.789Z,101227.00
2018-11-01T06:24:57.769Z,101222.00
2018-11-01T06:27:00.728Z,101214.00
2018-11-01T06:29:05.255Z,101206.00
2018-11-01T06:31:08.206Z,101212.00
2018-11-01T06:33:11.130Z,101208.00
2018-11-01T06:35:22.970Z,101202.00
2018-11-01T06:37:25.975Z,101201.00
2018-11-01T06:39:29.046Z,101199.00
2018-11-01T06:41:33.607Z,101198.00
2018-11-01T06:43:36.586Z,101205.00
2018-11-01T06:45:39.629Z,101225.00
2018-11-01T06:47:43.041Z,101222.00
2018-11-01T06:49:46.035Z,101222.00
2018-11-01T06:51:49.062Z,101223.00
2018-11-01T06:53:52.079Z,101217.00
2018-11-01T06:55:55.053Z,101209.00
2018-11-01T06:57:58.016Z,101207.00
2018-11-01T07:00:01.120Z,101192.00
2018-11-01T07:02:05.773Z,101184.00
2018-11-01T07:04:08.724Z,101186.00
2018-11-01T07:06:11.737Z,101203.00
2018-11-01T07:08:14.769Z,101211.00
2018-11-01T07:10:17.781Z,101216.00
2018-11-01T07:12:20.778Z,101221.00
2018-11-01T07:14:23.772Z,101221.00
2018-11-01T07:16:26.770Z,101223.00
2018-11-01T07:18:30.122Z,101213.00
2018-11-01T07:20:34.588Z,101206.00
2018-11-01T07:22:38.552Z,101192.00
2018-11-01T07:24:41.603Z,101184.00
2018-11-01T07:26:44.642Z,101186.00
2018-11-01T07:28:47.698Z,101179.00
2018-11-01T07:30:50.721Z,101188.00
2018-11-01T07:32:53.819Z,101173.00
2018-11-01T07:34:56.828Z,101159.00
2018-11-01T07:36:59.888Z,101151.00
2018-11-01T07:39:04.567Z,101147.00
2018-11-01T07:41:07.595Z,101154.00
2018-11-01T07:43:10.626Z,101157.00
2018-11-01T07:45:14.040Z,101144.00
2018-11-01T07:47:17.051Z,101130.00
2018-11-01T07:49:20.112Z,101131.00
2018-11-01T07:51:23.122Z,101132.00
2018-11-01T07:53:26.102Z,101128.00
2018-11-01T07:55:29.463Z,101135.00
2018-11-01T07:57:34.390Z,101130.00
2018-11-01T07:59:37.388Z,101120.00
2018-11-01T08:01:40.450Z,101127.00
2018-11-01T08:03:43.484Z,101115.00
2018-11-01T08:05:46.625Z,101105.00
2018-11-01T08:07:49.640Z,101106.00
2018-11-01T08:09:52.661Z,101121.00
2018-11-01T08:11:55.680Z,101132.00
2018-11-01T08:13:58.723Z,101126.00
2018-11-01T08:16:03.540Z,101117.00
2018-11-01T08:18:06.605Z,101107.00
2018-11-01T08:20:11.822Z,101097.00
2018-11-01T08:22:14.713Z,101089.00
2018-11-01T08:24:17.796Z,101089.00
2018-11-01T08:26:20.811Z,101091.00
2018-11-01T08:28:24.204Z,101096.00
2018-11-01T08:30:27.206Z,101101.00
2018-11-01T08:32:30.261Z,101108.00
2018-11-01T08:34:34.875Z,101105.00
2018-11-01T08:36:38.007Z,101119.00
2018-11-01T08:38:41.035Z,101111.00
2018-11-01T08:40:44.105Z,101098.00
2018-11-01T08:42:47.150Z,101086.00
2018-11-01T08:44:50.128Z,101087.00
2018-11-01T08:46:53.171Z,101077.00
2018-11-01T08:48:56.205Z,101062.00
2018-11-01T08:50:59.262Z,101061.00
2018-11-01T08:53:03.661Z,101071.00
2018-11-01T08:55:07.360Z,101080.00
2018-11-01T08:57:10.385Z,101087.00
2018-11-01T08:59:13.458Z,101092.00
2018-11-01T09:01:16.491Z,101098.00
2018-11-01T09:03:19.558Z,101097.00
2018-11-01T09:05:22.572Z,101097.00
2018-11-01T09:07:25.718Z,101092.00
2018-11-01T09:09:28.620Z,101095.00
2018-11-01T09:11:32.918Z,101092.00
2018-11-01T09:13:35.928Z,101089.00
2018-11-01T09:15:38.953Z,101090.00
2018-11-01T09:17:42.329Z,101096.00
2018-11-01T09:19:45.327Z,101106.00
2018-11-01T09:21:48.427Z,101104.00
2018-11-01T09:23:51.434Z,101096.00
2018-11-01T09:25:54.453Z,101095.00
2018-11-01T09:27:57.441Z,101090.00
2018-11-01T09:30:00.518Z,101078.00
2018-11-01T09:32:05.170Z,101072.00
2018-11-01T09:34:08.181Z,101054.00
2018-11-01T09:36:11.235Z,101054.00
2018-11-01T09:38:14.215Z,101049.00
2018-11-01T09:40:17.231Z,101050.00
2018-11-01T09:42:20.773Z,101069.00
2018-11-01T09:44:23.759Z,101066.00
2018-11-01T09:46:26.815Z,101053.00
2018-11-01T09:48:29.730Z,101060.00
2018-11-01T09:50:34.346Z,101060.00
2018-11-01T09:52:37.708Z,101051.00
2018-11-01T09:54:40.746Z,101040.00
2018-11-01T09:56:44.229Z,101034.00
2018-11-01T09:58:47.285Z,101035.00
2018-11-01T10:00:50.330Z,101031.00
2018-11-01T10:02:53.339Z,101028.00
2018-11-01T10:04:56.365Z,101018.00
2018-11-01T10:06:59.408Z,101015.00
2018-11-01T10:09:04.286Z,101017.00
2018-11-01T10:11:07.261Z,101022.00
2018-11-01T10:13:10.287Z,101026.00
2018-11-01T10:15:13.353Z,101023.00
2018-11-01T10:17:16.589Z,101009.00
2018-11-01T10:19:19.294Z,101001.00
2018-11-01T10:21:22.380Z,101004.00
2018-11-01T10:23:25.327Z,100995.00
2018-11-01T10:25:28.409Z,100993.00
2018-11-01T10:27:31.367Z,100988.00
2018-11-01T10:29:34.395Z,100987.00
2018-11-01T10:31:37.377Z,100980.00
2018-11-01T10:33:40.358Z,100974.00
2018-11-01T10:35:43.323Z,100984.00
2018-11-01T10:37:46.335Z,100981.00
2018-11-01T10:39:49.319Z,100981.00
2018-11-01T10:41:52.322Z,100976.00
2018-11-01T10:43:55.298Z,100969.00
2018-11-01T10:45:58.234Z,100965.00
2018-11-01T10:48:01.212Z,100964.00
2018-11-01T10:50:11.119Z,100959.00
2018-11-01T10:52:14.093Z,100946.00
2018-11-01T10:54:17.138Z,100934.00
2018-11-01T10:56:20.091Z,100935.00
2018-11-01T10:58:23.060Z,100930.00
2018-11-01T11:00:33.808Z,100933.00
2018-11-01T11:02:36.967Z,100928.00
2018-11-01T11:04:40.751Z,100930.00
2018-11-01T11:06:44.151Z,100935.00
2018-11-01T11:08:47.114Z,100941.00
2018-11-01T11:10:50.086Z,100944.00
2018-11-01T11:12:53.109Z,100938.00
2018-11-01T11:14:56.102Z,100934.00
2018-11-01T11:16:59.063Z,100933.00
2018-11-01T11:19:03.902Z,100924.00
2018-11-01T11:21:07.174Z,100915.00
2018-11-01T11:23:09.821Z,100912.00
2018-11-01T11:25:12.827Z,100916.00
2018-11-01T11:27:16.012Z,100921.00
2018-11-01T11:29:19.008Z,100922.00
2018-11-01T11:31:21.998Z,100920.00
2018-11-01T11:33:24.996Z,100911.00
2018-11-01T11:35:28.008Z,100913.00
2018-11-01T11:37:30.985Z,100917.00
2018-11-01T11:39:35.353Z,100928.00
2018-11-01T11:41:39.321Z,100925.00
2018-11-01T11:43:42.318Z,100917.00
2018-11-01T11:45:45.300Z,100917.00
2018-11-01T11:47:48.352Z,100921.00
2018-11-01T11:49:51.401Z,100927.00
2018-11-01T11:51:54.524Z,100931.00
2018-11-01T11:53:57.871Z,100932.00
2018-11-01T11:56:00.856Z,100927.00
2018-11-01T11:58:05.204Z,100921.00
2018-11-01T12:00:12.518Z,100914.00
2018-11-01T12:02:15.504Z,100907.00
2018-11-01T12:04:18.509Z,100904.00
2018-11-01T12:06:21.611Z,100906.00
2018-11-01T12:08:24.534Z,100912.00
2018-11-01T12:10:27.591Z,100910.00
2018-11-01T12:12:30.579Z,100913.00
2018-11-01T12:14:34.819Z,100908.00
2018-11-01T12:16:38.067Z,100904.00
2018-11-01T12:18:41.527Z,100905.00
2018-11-01T12:20:44.505Z,100901.00
2018-11-01T12:22:47.496Z,100900.00
2018-11-01T12:24:50.493Z,100910.00
2018-11-01T12:26:53.502Z,100921.00
2018-11-01T12:28:56.539Z,100917.00
2018-11-01T12:30:59.435Z,100916.00
2018-11-01T12:33:04.009Z,100916.00
2018-11-01T12:35:07.875Z,100919.00
2018-11-01T12:37:10.843Z,100917.00
2018-11-01T12:39:13.862Z,100908.00
2018-11-01T12:41:16.837Z,100904.00
2018-11-01T12:43:19.804Z,100900.00
2018-11-01T12:45:22.761Z,100902.00
2018-11-01T12:47:25.764Z,100893.00
2018-11-01T12:49:28.742Z,100894.00
2018-11-01T12:51:33.456Z,100887.00
2018-11-01T12:53:36.497Z,100875.00
2018-11-01T12:55:39.457Z,100871.00
2018-11-01T12:57:42.396Z,100871.00
2018-11-01T12:59:45.772Z,100859.00
2018-11-01T13:01:48.810Z,100853.00
2018-11-01T13:03:51.806Z,100850.00
2018-11-01T13:05:54.833Z,100849.00
2018-11-01T13:07:57.839Z,100849.00
2018-11-01T13:10:00.831Z,100835.00
2018-11-01T13:12:05.488Z,100826.00
2018-11-01T13:14:08.834Z,100815.00
2018-11-01T13:16:11.809Z,100812.00
2018-11-01T13:18:14.788Z,100797.00
2018-11-01T13:20:17.755Z,100808.00
2018-11-01T13:22:20.742Z,100811.00
2018-11-01T13:24:23.672Z,100804.00
2018-11-01T13:26:26.651Z,100800.00
2018-11-01T13:28:29.654Z,100802.00
2018-11-01T13:30:33.764Z,100792.00
2018-11-01T13:32:36.684Z,100796.00
2018-11-01T13:34:39.759Z,100795.00
2018-11-01T13:36:42.767Z,100793.00
2018-11-01T13:38:45.827Z,100795.00
2018-11-01T13:40:49.236Z,100802.00
2018-11-01T13:42:51.875Z,100799.00
2018-11-01T13:44:54.911Z,100802.00
2018-11-01T13:46:58.055Z,100810.00
2018-11-01T13:49:01.312Z,100813.00
2018-11-01T13:51:05.798Z,100809.00
2018-11-01T13:53:08.821Z,100806.00
2018-11-01T13:55:12.361Z,100803.00
2018-11-01T13:57:15.515Z,100801.00
2018-11-01T13:59:18.492Z,100811.00
2018-11-01T14:01:21.515Z,100821.00
2018-11-01T14:03:24.542Z,100818.00
2018-11-01T14:05:27.624Z,100800.00
2018-11-01T14:07:30.597Z,100788.00
2018-11-01T14:09:34.690Z,100778.00
2018-11-01T14:11:37.743Z,100778.00
2018-11-01T14:13:40.901Z,100777.00
2018-11-01T14:15:43.772Z,100780.00
2018-11-01T14:17:46.816Z,100792.00
2018-11-01T14:19:49.837Z,100803.00
2018-11-01T14:21:52.881Z,100803.00
2018-11-01T14:23:55.903Z,100803.00
2018-11-01T14:25:58.954Z,100802.00
2018-11-01T14:28:03.347Z,100818.00
2018-11-01T14:30:11.361Z,100826.00
2018-11-01T14:32:14.519Z,100820.00
2018-11-01T14:34:17.555Z,100806.00
2018-11-01T14:36:20.609Z,100802.00
2018-11-01T14:38:23.654Z,100806.00
2018-11-01T14:40:26.632Z,100817.00
2018-11-01T14:42:29.584Z,100819.00
2018-11-01T14:44:33.919Z,100816.00
2018-11-01T14:46:36.792Z,100827.00
2018-11-01T14:48:39.814Z,100842.00
2018-11-01T14:50:42.797Z,100837.00
2018-11-01T14:52:46.119Z,100827.00
2018-11-01T14:54:49.588Z,100816.00
2018-11-01T14:56:53.103Z,100798.00
2018-11-01T14:58:57.275Z,100801.00
2018-11-01T15:00:58.698Z,100795.00
2018-11-01T15:03:03.051Z,100789.00
2018-11-01T15:05:06.690Z,100792.00
2018-11-01T15:07:09.658Z,100791.00
2018-11-01T15:09:13.282Z,100788.00
2018-11-01T15:11:16.333Z,100775.00
2018-11-01T15:13:19.290Z,100777.00
2018-11-01T15:15:22.268Z,100775.00
2018-11-01T15:17:25.239Z,100772.00
2018-11-01T15:19:28.248Z,100766.00
2018-11-01T15:21:31.247Z,100769.00
2018-11-01T15:23:35.616Z,100771.00
2018-11-01T15:25:38.679Z,100786.00
2018-11-01T15:27:41.684Z,100776.00
2018-11-01T15:29:44.669Z,100773.00
2018-11-01T15:31:47.698Z,100776.00
2018-11-01T15:33:50.767Z,100772.00
2018-11-01T15:35:54.077Z,100772.00
2018-11-01T15:37:57.034Z,100761.00
2018-11-01T15:40:00.117Z,100766.00
2018-11-01T15:42:04.586Z,100759.00
2018-11-01T15:44:08.079Z,100761.00
2018-11-01T15:46:11.575Z,100761.00
2018-11-01T15:48:14.606Z,100756.00
2018-11-01T15:50:18.487Z,100750.00
2018-11-01T15:52:21.507Z,100752.00
2018-11-01T15:54:24.499Z,100755.00
2018-11-01T15:56:27.494Z,100752.00
2018-11-01T15:58:30.521Z,100748.00
2018-11-01T16:00:35.092Z,100746.00
2018-11-01T16:02:39.604Z,100746.00
2018-11-01T16:04:42.607Z,100756.00
2018-11-01T16:06:45.632Z,100756.00
2018-11-01T16:08:48.631Z,100762.00
2018-11-01T16:10:51.702Z,100766.00
2018-11-01T16:12:54.622Z,100769.00
2018-11-01T16:14:57.600Z,100770.00
2018-11-01T16:17:00.641Z,100773.00
2018-11-01T16:19:06.525Z,100765.00
2018-11-01T16:21:09.533Z,100769.00
2018-11-01T16:23:12.649Z,100767.00
2018-11-01T16:25:15.990Z,100764.00
2018-11-01T16:27:19.127Z,100768.00
2018-11-01T16:29:22.028Z,100770.00
2018-11-01T16:31:25.124Z,100772.00
2018-11-01T16:33:28.147Z,100774.00
2018-11-01T16:35:31.170Z,100787.00
2018-11-01T16:37:36.416Z,100789.00
2018-11-01T16:39:39.432Z,100800.00
2018-11-01T16:41:42.439Z,100799.00
2018-11-01T16:43:45.741Z,100787.00
2018-11-01T16:45:48.733Z,100780.00
2018-11-01T16:47:51.841Z,100775.00
2018-11-01T16:49:56.487Z,100769.00
2018-11-01T16:51:59.445Z,100768.00
2018-11-01T16:54:04.147Z,100768.00
2018-11-01T16:56:07.171Z,100771.00
2018-11-01T16:58:10.111Z,100773.00
2018-11-01T17:00:13.474Z,100772.00
2018-11-01T17:02:16.508Z,100768.00
2018-11-01T17:04:19.501Z,100772.00
2018-11-01T17:06:22.474Z,100766.00
2018-11-01T17:08:27.587Z,100768.00
2018-11-01T17:10:30.680Z,100769.00
2018-11-01T17:12:35.305Z,100772.00
2018-11-01T17:14:38.535Z,100773.00
2018-11-01T17:16:41.633Z,100772.00
2018-11-01T17:18:44.647Z,100773.00
2018-11-01T17:20:47.711Z,100778.00
2018-11-01T17:22:50.727Z,100777.00
2018-11-01T17:24:53.893Z,100786.00
2018-11-01T17:26:57.263Z,100787.00
2018-11-01T17:29:00.347Z,100788.00
2018-11-01T17:31:04.761Z,100792.00
2018-11-01T17:33:07.907Z,100793.00
2018-11-01T17:35:10.919Z,100795.00
2018-11-01T17:37:13.939Z,100802.00
2018-11-01T17:39:16.968Z,100804.00
2018-11-01T17:41:20.299Z,100801.00
2018-11-01T17:43:23.499Z,100801.00
2018-11-01T17:45:26.464Z,100796.00
2018-11-01T17:47:29.457Z,100796.00
2018-11-01T17:49:34.201Z,100791.00
2018-11-01T17:51:37.287Z,100791.00
2018-11-01T17:53:40.343Z,100791.00
2018-11-01T17:55:43.403Z,100799.00
2018-11-01T17:57:46.432Z,100800.00
2018-11-01T17:59:49.471Z,100799.00
2018-11-01T18:01:52.633Z,100795.00
2018-11-01T18:03:55.511Z,100798.00
2018-11-01T18:05:58.502Z,100802.00
2018-11-01T18:08:01.507Z,100794.00
2018-11-01T18:10:06.677Z,100790.00
2018-11-01T18:12:09.711Z,100793.00
2018-11-01T18:14:12.804Z,100791.00
2018-11-01T18:16:15.944Z,100790.00
2018-11-01T18:18:18.943Z,100786.00
2018-11-01T18:20:21.940Z,100785.00
2018-11-01T18:22:25.302Z,100777.00
2018-11-01T18:24:28.325Z,100781.00
2018-11-01T18:26:31.294Z,100776.00
2018-11-01T18:28:35.811Z,100771.00
2018-11-01T18:30:38.782Z,100767.00
2018-11-01T18:32:42.282Z,100762.00
2018-11-01T18:34:45.340Z,100766.00
2018-11-01T18:36:48.364Z,100775.00
2018-11-01T18:38:51.416Z,100770.00
2018-11-01T18:40:54.491Z,100769.00
2018-11-01T18:42:57.599Z,100777.00
2018-11-01T18:45:00.652Z,100784.00
2018-11-01T18:47:05.402Z,100771.00
2018-11-01T18:49:08.535Z,100773.00
2018-11-01T18:51:12.256Z,100771.00
2018-11-01T18:53:15.941Z,100775.00
2018-11-01T18:55:19.045Z,100782.00
2018-11-01T18:57:22.188Z,100790.00
2018-11-01T18:59:25.299Z,100800.00
2018-11-01T19:01:28.436Z,100802.00
2018-11-01T19:03:33.872Z,100805.00
2018-11-01T19:05:36.918Z,100810.00
2018-11-01T19:07:40.959Z,100810.00
2018-11-01T19:09:44.036Z,100809.00
2018-11-01T19:11:47.067Z,100805.00
2018-11-01T19:13:50.213Z,100807.00
2018-11-01T19:15:53.247Z,100811.00
2018-11-01T19:17:56.284Z,100813.00
2018-11-01T19:19:59.344Z,100811.00
2018-11-01T19:22:04.915Z,100816.00
2018-11-01T19:24:08.658Z,100819.00
2018-11-01T19:26:12.483Z,100815.00
2018-11-01T19:28:16.527Z,100813.00
2018-11-01T19:30:19.552Z,100814.00
2018-11-01T19:32:22.663Z,100820.00
2018-11-01T19:34:26.010Z,100825.00
2018-11-01T19:36:28.994Z,100823.00
2018-11-01T19:38:33.203Z,100826.00
2018-11-01T19:40:36.310Z,100825.00
2018-11-01T19:42:39.395Z,100824.00
2018-11-01T19:44:42.585Z,100830.00
2018-11-01T19:46:45.783Z,100836.00
2018-11-01T19:48:48.887Z,100841.00
2018-11-01T19:50:51.911Z,100848.00
2018-11-01T19:52:56.100Z,100849.00
2018-11-01T19:54:59.175Z,100855.00
2018-11-01T19:57:04.072Z,100868.00
2018-11-01T19:59:07.107Z,100864.00
2018-11-01T20:01:10.159Z,100865.00
2018-11-01T20:03:13.257Z,100867.00
2018-11-01T20:05:16.384Z,100878.00
2018-11-01T20:07:19.493Z,100879.00
2018-11-01T20:09:22.861Z,100882.00
2018-11-01T20:11:25.971Z,100896.00
2018-11-01T20:13:29.002Z,100898.00
2018-11-01T20:15:33.227Z,100896.00
2018-11-01T20:17:36.605Z,100898.00
2018-11-01T20:19:39.635Z,100902.00
2018-11-01T20:21:42.705Z,100904.00
2018-11-01T20:23:45.679Z,100911.00
2018-11-01T20:25:48.748Z,100911.00
2018-11-01T20:27:51.707Z,100910.00
2018-11-01T20:29:54.794Z,100911.00
2018-11-01T20:32:05.118Z,100923.00
2018-11-01T20:34:08.226Z,100926.00
2018-11-01T20:36:11.428Z,100938.00
2018-11-01T20:38:14.593Z,100936.00
2018-11-01T20:40:17.652Z,100934.00
2018-11-01T20:42:20.604Z,100934.00
2018-11-01T20:44:23.632Z,100932.00
2018-11-01T20:46:26.976Z,100934.00
2018-11-01T20:48:29.975Z,100936.00
2018-11-01T20:50:34.831Z,100932.00
2018-11-01T20:52:38.172Z,100923.00
2018-11-01T20:54:41.193Z,100927.00
2018-11-01T20:56:44.168Z,100924.00
2018-11-01T20:58:47.198Z,100925.00
2018-11-01T21:00:50.221Z,100923.00
2018-11-01T21:02:53.300Z,100926.00
2018-11-01T21:04:56.659Z,100934.00
2018-11-01T21:06:59.694Z,100934.00
2018-11-01T21:09:04.382Z,100933.00
2018-11-01T21:11:07.596Z,100939.00
2018-11-01T21:13:10.569Z,100934.00
2018-11-01T21:15:14.371Z,100938.00
2018-11-01T21:17:17.546Z,100941.00
2018-11-01T21:19:20.746Z,100943.00
2018-11-01T21:21:23.769Z,100956.00
2018-11-01T21:23:27.003Z,100960.00
2018-11-01T21:25:30.011Z,100964.00
2018-11-01T21:27:34.910Z,100963.00
2018-11-01T21:29:37.921Z,100957.00
2018-11-01T21:31:41.000Z,100966.00
2018-11-01T21:33:44.004Z,100965.00
2018-11-01T21:35:47.130Z,100973.00
2018-11-01T21:37:50.467Z,100975.00
2018-11-01T21:39:53.485Z,100982.00
2018-11-01T21:41:56.913Z,100976.00
2018-11-01T21:43:59.940Z,100979.00
2018-11-01T21:46:04.599Z,100977.00
2018-11-01T21:48:07.767Z,100977.00
2018-11-01T21:50:11.549Z,100987.00
2018-11-01T21:52:14.569Z,100995.00
2018-11-01T21:54:17.568Z,101001.00
2018-11-01T21:56:20.610Z,101010.00
2018-11-01T21:58:23.641Z,101012.00
2018-11-01T22:00:26.713Z,101016.00
2018-11-01T22:02:30.100Z,101019.00
2018-11-01T22:04:35.046Z,101023.00
2018-11-01T22:06:38.105Z,101032.00
2018-11-01T22:08:41.114Z,101032.00
2018-11-01T22:10:44.245Z,101040.00
2018-11-01T22:12:47.292Z,101045.00
2018-11-01T22:14:50.320Z,101046.00
2018-11-01T22:16:53.539Z,101059.00
2018-11-01T22:18:56.627Z,101063.00
2018-11-01T22:20:59.620Z,101071.00
2018-11-01T22:23:04.299Z,101073.00
2018-11-01T22:25:07.841Z,101072.00
2018-11-01T22:27:10.820Z,101081.00
2018-11-01T22:29:13.816Z,101082.00
2018-11-01T22:31:16.807Z,101093.00
2018-11-01T22:33:19.845Z,101099.00
2018-11-01T22:35:22.850Z,101098.00
2018-11-01T22:37:25.821Z,101108.00
2018-11-01T22:39:28.789Z,101115.00
2018-11-01T22:41:33.442Z,101129.00
2018-11-01T22:43:36.451Z,101136.00
2018-11-01T22:45:39.477Z,101138.00
2018-11-01T22:47:42.419Z,101138.00
2018-11-01T22:49:45.510Z,101142.00
2018-11-01T22:51:48.761Z,101143.00
2018-11-01T22:53:51.821Z,101150.00
2018-11-01T22:55:54.749Z,101158.00
2018-11-01T22:57:57.717Z,101161.00
2018-11-01T23:00:00.881Z,101165.00
2018-11-01T23:02:05.707Z,101156.00
2018-11-01T23:04:08.788Z,101155.00
2018-11-01T23:06:11.823Z,101159.00
2018-11-01T23:08:14.833Z,101165.00
2018-11-01T23:10:17.819Z,101166.00
2018-11-01T23:12:20.960Z,101168.00
2018-11-01T23:14:23.990Z,101174.00
2018-11-01T23:16:27.095Z,101186.00
2018-11-01T23:18:30.083Z,101183.00
2018-11-01T23:20:33.902Z,101182.00
2018-11-01T23:22:37.290Z,101187.00
2018-11-01T23:24:40.331Z,101176.00
2018-11-01T23:26:43.357Z,101174.00